Time;durP1;ratioP1;P1;durP2;ratioP2;P2;SDS_P1;SDS_P2;PMS_P1;PMS_P2;Temp;Humidity;BMP_temperature;BMP_pressure;BME280_temperature;BME280_humidity;BME280_pressure;Samples;Min_cycle;Max_cycle;Signal;HPM_P1;HPM_P2
2022/09/14 00:02:10;;;;;;;84.53;53.80;;;;;;;29.83;69.94;100967.41;5073628;28;69752;-45
2022/09/14 00:04:43;;;;;;;82.88;48.00;;;;;;;29.83;72.28;100972.81;5076208;27;66907;-44
2022/09/14 00:07:16;;;;;;;69.40;43.28;;;;;;;29.86;72.88;100976.16;5078713;27;70464;-44
2022/09/14 00:09:50;;;;;;;67.05;38.08;;;;;;;29.95;70.39;100991.13;5075650;28;66150;-45
2022/09/14 00:12:23;;;;;;;60.13;33.63;;;;;;;29.97;70.63;100989.03;5077705;28;69386;-44
2022/09/14 00:14:56;;;;;;;48.25;30.02;;;;;;;29.93;73.62;100993.22;5076132;28;65832;-45
2022/09/14 00:17:29;;;;;;;43.08;27.52;;;;;;;29.97;73.07;100994.44;5074707;28;70563;-45
2022/09/14 00:20:01;;;;;;;39.22;24.88;;;;;;;29.95;71.63;100993.81;5076356;28;66382;-45
2022/09/14 00:22:34;;;;;;;36.55;21.88;;;;;;;29.95;74.22;101010.03;5077620;28;71195;-45
2022/09/14 00:25:06;;;;;;;33.13;20.58;;;;;;;29.93;72.01;100994.03;5075195;27;66463;-44
2022/09/14 00:27:39;;;;;;;27.88;18.42;;;;;;;29.95;74.45;101004.63;5074757;28;70301;-44
2022/09/14 00:30:12;;;;;;;24.15;17.02;;;;;;;30.02;73.74;101008.16;5078846;27;66945;-44
2022/09/14 00:32:45;;;;;;;26.13;15.88;;;;;;;29.99;73.84;101014.00;5066415;28;69196;-45
2022/09/14 00:35:18;;;;;;;28.35;15.00;;;;;;;30.01;74.68;101007.34;5066069;28;66143;-44
2022/09/14 00:37:51;;;;;;;22.85;14.65;;;;;;;30.05;73.83;101018.56;5068110;28;70928;-42
2022/09/14 00:40:23;;;;;;;25.27;13.13;;;;;;;30.02;74.35;101010.88;5065229;28;66640;-45
2022/09/14 00:42:56;;;;;;;21.40;11.90;;;;;;;30.09;73.83;101030.63;5078739;27;71558;-43
2022/09/14 00:45:28;;;;;;;16.88;10.98;;;;;;;30.10;74.57;101029.59;5065017;28;66691;-42
2022/09/14 00:48:01;;;;;;;27.58;11.93;;;;;;;30.12;74.62;101035.63;5078344;28;70496;-43
2022/09/14 00:50:34;;;;;;;19.48;10.20;;;;;;;30.24;71.44;101033.94;5069839;28;66579;-45
2022/09/14 00:53:07;;;;;;;19.65;9.23;;;;;;;30.31;69.99;101030.38;5072786;28;70791;-45
2022/09/14 00:55:40;;;;;;;13.52;8.77;;;;;;;30.24;69.58;101015.00;5069753;28;66833;-45
2022/09/14 00:58:12;;;;;;;15.60;7.57;;;;;;;30.39;69.75;101035.56;5068309;27;70135;-45
2022/09/14 01:00:45;;;;;;;14.65;8.50;;;;;;;30.10;69.29;100994.41;5075409;28;66940;-46
2022/09/14 01:03:17;;;;;;;12.43;7.25;;;;;;;30.45;69.37;101046.38;5075174;27;70803;-46
2022/09/14 01:06:08;;;;;;;8.93;7.10;;;;;;;30.49;69.67;101060.31;5079918;27;66728;-46
2022/09/14 01:09:04;;;;;;;14.70;7.90;;;;;;;30.44;69.26;101066.34;5080226;27;70797;-46
2022/09/14 01:11:43;;;;;;;7.60;6.90;;;;;;;30.55;69.20;101067.56;5081998;28;67003;-46
2022/09/14 01:14:33;;;;;;;10.88;6.45;;;;;;;30.58;69.06;101072.56;5078300;28;71043;-47
2022/09/14 01:17:20;;;;;;;7.25;6.43;;;;;;;30.08;68.93;100982.97;5080736;28;66123;-45
2022/09/14 01:20:13;;;;;;;7.70;6.88;;;;;;;30.64;69.38;101076.28;5081024;28;71081;-44
2022/09/14 01:23:04;;;;;;;8.23;6.80;;;;;;;30.56;69.44;101074.66;5070722;27;67065;-46
2022/09/14 01:25:40;;;;;;;8.60;6.77;;;;;;;30.68;69.60;101078.38;5080619;27;71035;-45
2022/09/14 01:28:52;;;;;;;11.05;7.00;;;;;;;30.60;69.27;101065.06;5073504;28;66469;-45
2022/09/14 01:31:32;;;;;;;7.32;6.47;;;;;;;30.75;69.27;101074.78;5080672;27;70268;-45
2022/09/14 01:34:33;;;;;;;10.80;6.80;;;;;;;30.77;69.14;101075.41;5075970;27;65976;-45
2022/09/14 01:37:15;;;;;;;10.27;6.82;;;;;;;30.28;68.89;100991.91;5071147;28;70817;-44
2022/09/14 01:39:54;;;;;;;10.05;6.68;;;;;;;30.81;69.23;101071.25;5078219;28;66100;-44
2022/09/14 01:42:28;;;;;;;6.95;6.30;;;;;;;30.72;68.85;101047.09;5075460;27;69944;-46
2022/09/14 01:45:07;;;;;;;9.50;7.00;;;;;;;30.42;68.93;100995.41;5081197;28;67439;-44
2022/09/14 01:47:49;;;;;;;7.07;6.00;;;;;;;30.77;68.75;101059.16;5080924;27;70831;-45
2022/09/14 01:50:38;;;;;;;10.25;6.60;;;;;;;30.77;68.91;101064.59;5075944;28;66191;-44
2022/09/14 01:53:15;;;;;;;6.57;5.97;;;;;;;30.94;68.83;101076.63;5077310;28;71360;-44
2022/09/14 01:56:00;;;;;;;7.57;6.22;;;;;;;30.97;68.56;101091.59;5076573;28;66960;-45
2022/09/14 01:58:43;;;;;;;7.90;7.10;;;;;;;31.00;68.12;101085.75;5079171;28;71123;-44
2022/09/14 02:01:25;;;;;;;5.93;5.32;;;;;;;30.41;68.39;100991.00;5071647;28;67256;-44
2022/09/14 02:04:06;;;;;;;6.43;5.85;;;;;;;30.50;68.30;100999.72;5077665;27;70120;-46
2022/09/14 02:06:43;;;;;;;9.18;5.90;;;;;;;31.02;68.37;101068.22;5076771;28;67451;-45
2022/09/14 02:09:21;;;;;;;8.07;6.05;;;;;;;31.04;68.02;101066.16;5065043;28;70678;-44
2022/09/14 02:11:59;;;;;;;6.07;5.55;;;;;;;31.00;68.10;101070.31;5076732;28;66033;-44
2022/09/14 02:14:32;;;;;;;6.00;5.50;;;;;;;31.11;67.70;101080.47;5078540;28;70745;-46
2022/09/14 02:17:07;;;;;;;8.63;5.65;;;;;;;31.15;67.50;101089.84;5081616;28;65595;-44
2022/09/14 02:19:56;;;;;;;7.13;5.07;;;;;;;31.01;67.64;101071.16;5080816;27;70779;-44
2022/09/14 02:22:30;;;;;;;6.70;4.75;;;;;;;30.94;67.46;101027.84;5080260;27;66724;-44
2022/09/14 02:25:03;;;;;;;5.75;5.05;;;;;;;31.19;67.28;101067.72;5079968;28;70336;-44
2022/09/14 02:27:36;;;;;;;5.22;4.82;;;;;;;31.26;67.49;101073.91;5079276;27;67270;-44
2022/09/14 02:30:09;;;;;;;5.10;4.60;;;;;;;31.28;67.16;101072.66;5079749;27;70517;-45
2022/09/14 02:33:23;;;;;;;4.72;4.32;;;;;;;31.30;67.09;101075.16;5075656;28;66665;-44
2022/09/14 02:36:02;;;;;;;4.90;4.50;;;;;;;31.34;66.96;101070.94;5031544;28;70709;-44
2022/09/14 02:38:50;;;;;;;5.43;4.95;;;;;;;31.32;66.97;101076.59;5075133;27;65773;-44
2022/09/14 02:41:38;;;;;;;4.88;4.43;;;;;;;31.29;67.12;101068.09;5076749;28;72475;-43
2022/09/14 02:44:28;;;;;;;4.85;4.40;;;;;;;31.34;66.70;101070.94;5070318;27;67153;-45
2022/09/14 02:47:08;;;;;;;5.03;4.47;;;;;;;31.30;66.17;101058.91;5080447;27;70697;-46
2022/09/14 02:50:10;;;;;;;4.82;4.38;;;;;;;31.38;66.28;101066.78;5070345;27;66936;-44
2022/09/14 02:53:10;;;;;;;4.83;4.43;;;;;;;31.28;66.67;101067.22;5060217;28;69928;-45
2022/09/14 02:55:48;;;;;;;4.70;4.25;;;;;;;31.45;66.06;101062.13;5063729;28;67030;-44
2022/09/14 02:58:21;;;;;;;4.40;4.00;;;;;;;31.46;66.04;101063.81;5069251;28;70883;-45
2022/09/14 03:00:53;;;;;;;5.00;3.88;;;;;;;31.43;66.18;101053.41;5075342;28;67243;-45
2022/09/14 03:03:26;;;;;;;4.45;4.03;;;;;;;31.59;66.10;101069.16;5074732;28;70991;-46
2022/09/14 03:06:05;;;;;;;4.30;3.90;;;;;;;31.61;65.73;101067.03;5071708;28;67061;-46
2022/09/14 03:08:37;;;;;;;4.63;4.22;;;;;;;31.64;66.02;101078.50;5077302;28;70551;-45
2022/09/14 03:11:10;;;;;;;4.03;3.72;;;;;;;31.66;65.92;101068.25;5078734;27;66785;-44
2022/09/14 03:13:43;;;;;;;4.15;3.80;;;;;;;31.67;65.76;101069.91;5073444;28;70241;-45
2022/09/14 03:16:17;;;;;;;4.38;3.80;;;;;;;31.69;65.43;101073.22;5077931;28;66104;-45
2022/09/14 03:18:49;;;;;;;4.28;3.40;;;;;;;31.70;65.42;101059.44;5076218;28;70945;-43
2022/09/14 03:21:21;;;;;;;5.90;3.47;;;;;;;31.70;65.33;101047.75;5079295;28;67249;-44
2022/09/14 03:23:56;;;;;;;3.90;3.60;;;;;;;31.75;65.09;101050.66;5079295;28;70271;-44
2022/09/14 03:26:29;;;;;;;5.32;3.60;;;;;;;31.77;65.28;101040.41;5074313;28;66746;-45
2022/09/14 03:29:01;;;;;;;7.90;3.90;;;;;;;31.78;65.13;101044.78;5076241;28;70727;-44
2022/09/14 03:31:34;;;;;;;3.92;3.63;;;;;;;31.80;65.24;101048.94;5071756;28;66833;-45
2022/09/14 03:34:09;;;;;;;4.18;3.17;;;;;;;31.82;65.05;101051.44;5072131;28;70577;-45
2022/09/14 03:36:42;;;;;;;4.82;3.33;;;;;;;31.82;64.98;101043.28;5074594;28;67912;-45
2022/09/14 03:39:14;;;;;;;3.80;3.50;;;;;;;31.85;64.89;101039.31;5076229;28;71408;-46
2022/09/14 03:41:47;;;;;;;8.13;3.63;;;;;;;31.68;65.10;101007.31;5078074;28;67644;-45
2022/09/14 03:44:19;;;;;;;4.25;3.53;;;;;;;31.84;64.85;101038.44;5076002;28;70429;-45
2022/09/14 03:46:51;;;;;;;3.72;3.33;;;;;;;31.67;64.74;101005.66;5073954;28;66375;-45
2022/09/14 03:49:24;;;;;;;4.45;3.20;;;;;;;31.89;64.83;101025.06;5075651;28;70108;-44
2022/09/14 03:51:56;;;;;;;4.38;3.08;;;;;;;31.88;64.46;101017.16;5072940;28;66818;-44
2022/09/14 03:54:29;;;;;;;3.97;2.95;;;;;;;31.91;64.64;101012.13;5075364;27;70568;-45
2022/09/14 03:57:02;;;;;;;4.00;3.60;;;;;;;31.86;64.50;100998.38;5071169;28;66867;-45
2022/09/14 03:59:34;;;;;;;4.90;3.58;;;;;;;31.97;64.55;101010.41;5074100;28;70198;-45
2022/09/14 04:02:13;;;;;;;3.33;3.05;;;;;;;31.95;64.36;100996.22;5073011;27;66852;-44
2022/09/14 04:04:47;;;;;;;2.97;2.60;;;;;;;32.01;64.54;101006.16;5069063;27;70590;-44
2022/09/14 04:07:20;;;;;;;3.10;2.80;;;;;;;31.94;64.05;100986.44;5071819;28;67480;-45
2022/09/14 04:09:52;;;;;;;4.18;3.20;;;;;;;32.02;64.17;100997.81;5066826;28;70930;-45
2022/09/14 04:12:25;;;;;;;3.78;3.38;;;;;;;32.04;64.46;101003.84;5075852;28;66104;-45
2022/09/14 04:14:57;;;;;;;4.55;3.70;;;;;;;32.05;64.17;101000.06;5078057;27;70674;-44
2022/09/14 04:17:29;;;;;;;3.28;3.00;;;;;;;32.09;64.12;101002.34;5077116;27;66049;-45
2022/09/14 04:20:02;;;;;;;3.55;3.25;;;;;;;32.07;63.97;100996.31;5073725;28;70739;-43
2022/09/14 04:22:34;;;;;;;3.65;3.13;;;;;;;32.11;64.08;100989.38;5076023;28;66117;-44
2022/09/14 04:25:07;;;;;;;4.13;3.05;;;;;;;32.14;63.84;100991.63;5070823;28;69833;-44
2022/09/14 04:27:39;;;;;;;4.38;3.20;;;;;;;32.13;63.85;100992.72;5073417;28;67099;-47
2022/09/14 04:30:13;;;;;;;3.17;2.97;;;;;;;32.19;63.71;100991.78;5061909;28;70579;-45
2022/09/14 04:32:45;;;;;;;2.85;2.65;;;;;;;32.14;63.73;100980.78;5067095;28;65977;-46
2022/09/14 04:35:18;;;;;;;5.22;2.95;;;;;;;32.19;63.68;100991.78;5078402;27;69889;-45
2022/09/14 04:37:50;;;;;;;3.70;3.03;;;;;;;32.21;63.62;100982.38;5062087;28;67288;-46
2022/09/14 04:40:22;;;;;;;3.40;2.78;;;;;;;32.23;63.62;100984.84;5061806;28;70624;-44
2022/09/14 04:42:54;;;;;;;3.50;2.60;;;;;;;32.24;63.50;100975.66;5073368;27;67214;-45
2022/09/14 04:45:27;;;;;;;4.53;3.03;;;;;;;32.25;63.69;100961.84;5078798;28;70429;-44
2022/09/14 04:47:59;;;;;;;8.75;3.05;;;;;;;32.27;63.47;100961.63;5082450;27;66884;-46
2022/09/14 04:50:32;;;;;;;4.07;2.75;;;;;;;32.29;63.52;100959.53;5068980;28;70293;-44
2022/09/14 04:53:04;;;;;;;6.32;2.80;;;;;;;32.27;63.05;100948.06;5078891;28;66668;-45
2022/09/14 04:55:37;;;;;;;3.13;2.67;;;;;;;32.33;63.21;100949.84;5074326;28;70693;-46
2022/09/14 04:58:09;;;;;;;3.85;2.92;;;;;;;32.30;63.11;100933.22;5076759;28;67037;-45
2022/09/14 05:00:41;;;;;;;3.65;3.13;;;;;;;32.33;63.13;100932.75;5065751;28;70887;-46
2022/09/14 05:03:14;;;;;;;3.15;2.85;;;;;;;32.37;62.92;100913.03;5072511;28;66389;-45
2022/09/14 05:05:47;;;;;;;3.42;2.55;;;;;;;32.15;62.77;100871.16;5081085;28;70887;-45
2022/09/14 05:08:19;;;;;;;3.67;2.70;;;;;;;32.39;62.87;100916.34;5070067;28;66650;-45
2022/09/14 05:10:55;;;;;;;3.17;2.47;;;;;;;32.33;62.71;100895.56;5071118;28;69945;-45
2022/09/14 05:13:28;;;;;;;2.45;2.25;;;;;;;32.43;62.80;100939.28;5070891;28;66903;-46
2022/09/14 05:16:09;;;;;;;2.78;2.38;;;;;;;31.94;62.94;100873.31;5077360;27;70467;-46
2022/09/14 05:18:43;;;;;;;2.92;2.63;;;;;;;32.44;62.82;100956.41;5071099;28;66164;-44
2022/09/14 05:21:18;;;;;;;9.18;2.70;;;;;;;31.94;62.53;100867.06;5070594;28;70231;-44
2022/09/14 05:24:02;;;;;;;3.03;2.50;;;;;;;32.08;62.92;100900.28;5078317;28;66718;-45
2022/09/14 05:26:35;;;;;;;8.35;2.45;;;;;;;32.45;62.55;100964.31;5083302;27;70247;-46
2022/09/14 05:29:10;;;;;;;8.35;2.35;;;;;;;32.45;62.92;100964.31;5074936;28;67043;-44
2022/09/14 05:31:45;;;;;;;8.68;2.13;;;;;;;32.45;63.19;100975.16;5080899;28;71227;-46
2022/09/14 05:34:17;;;;;;;4.53;2.70;;;;;;;32.44;63.51;100962.66;5078669;27;66465;-44
2022/09/14 05:36:50;;;;;;;6.85;2.63;;;;;;;32.43;63.54;100961.00;5074559;27;70101;-44
2022/09/14 05:39:23;;;;;;;3.00;2.40;;;;;;;32.40;63.67;100961.47;5070424;28;66290;-44
2022/09/14 05:41:56;;;;;;;4.38;2.40;;;;;;;32.39;63.74;100959.78;5079302;27;70683;-45
2022/09/14 05:44:29;;;;;;;2.35;2.15;;;;;;;32.39;63.86;100965.22;5076261;28;67102;-44
2022/09/14 05:47:01;;;;;;;3.13;2.33;;;;;;;32.39;63.79;100946.22;5082533;28;69955;-44
2022/09/14 05:49:35;;;;;;;2.47;2.28;;;;;;;32.35;64.12;100939.59;5069645;28;67044;-44
2022/09/14 05:52:07;;;;;;;7.07;2.38;;;;;;;32.26;63.81;100921.97;5070920;28;70442;-45
2022/09/14 05:54:41;;;;;;;3.00;2.70;;;;;;;32.34;64.00;100924.34;5070115;28;67152;-45
2022/09/14 05:57:13;;;;;;;2.92;2.45;;;;;;;32.34;63.89;100923.53;5079815;27;70990;-44
2022/09/14 05:59:46;;;;;;;2.75;2.47;;;;;;;32.29;63.98;100916.09;5071973;27;66536;-46
2022/09/14 06:02:18;;;;;;;3.67;2.25;;;;;;;32.27;63.91;100907.34;5078465;28;70767;-45
2022/09/14 06:04:50;;;;;;;4.72;2.97;;;;;;;32.29;63.92;100910.66;5076032;27;66324;-45
2022/09/14 06:07:22;;;;;;;5.03;2.65;;;;;;;32.27;63.80;100891.06;5073948;28;70351;-45
2022/09/14 06:09:55;;;;;;;5.70;3.20;;;;;;;32.28;64.08;100892.72;5077238;28;67025;-46
2022/09/14 06:12:28;;;;;;;3.60;2.95;;;;;;;32.27;63.93;100880.19;5082753;27;69772;-44
2022/09/14 06:15:00;;;;;;;4.03;2.50;;;;;;;32.26;64.13;100878.53;5081243;28;66323;-45
2022/09/14 06:17:33;;;;;;;3.38;2.42;;;;;;;32.25;64.02;100869.56;5069595;28;70698;-45
2022/09/14 06:20:06;;;;;;;2.60;1.95;;;;;;;32.18;63.72;100849.00;5078105;28;67063;-46
2022/09/14 06:22:39;;;;;;;4.03;2.45;;;;;;;32.24;63.88;100848.91;5076997;27;70267;-45
2022/09/14 06:25:11;;;;;;;3.35;2.08;;;;;;;32.20;64.10;100825.16;5080235;27;67035;-44
2022/09/14 06:27:43;;;;;;;3.50;2.28;;;;;;;32.18;63.61;100825.41;5067811;28;70829;-46
2022/09/14 06:30:16;;;;;;;4.03;2.35;;;;;;;32.21;63.72;100813.28;5081274;28;66965;-46
2022/09/14 06:32:49;;;;;;;4.50;2.50;;;;;;;32.19;63.74;100807.25;5081797;27;69921;-46
2022/09/14 06:35:21;;;;;;;3.22;2.60;;;;;;;32.20;63.69;100796.13;5081299;28;67189;-45
2022/09/14 06:37:53;;;;;;;3.63;2.78;;;;;;;32.19;63.91;100793.69;5079580;28;70341;-43
2022/09/14 06:40:27;;;;;;;2.85;2.58;;;;;;;32.20;63.90;100779.84;5075726;28;67041;-46
2022/09/14 06:43:01;;;;;;;2.50;2.30;;;;;;;32.11;63.97;100761.44;5074763;28;70773;-45
2022/09/14 06:45:35;;;;;;;3.00;2.50;;;;;;;32.17;63.88;100768.66;5073396;28;66559;-45
2022/09/14 06:48:07;;;;;;;6.20;2.20;;;;;;;32.18;63.80;100762.16;5070134;28;70223;-45
2022/09/14 06:50:40;;;;;;;3.70;2.22;;;;;;;32.18;63.90;100763.00;5080434;27;66221;-43
2022/09/14 06:53:12;;;;;;;3.88;2.15;;;;;;;32.12;64.01;100746.78;5067783;28;70797;-44
2022/09/14 06:55:44;;;;;;;2.38;1.88;;;;;;;32.17;64.15;100753.19;5065172;28;67058;-45
2022/09/14 06:58:17;;;;;;;3.20;2.10;;;;;;;32.18;64.06;100751.28;5078407;28;70009;-44
2022/09/14 07:01:10;;;;;;;3.22;2.35;;;;;;;31.38;64.10;100619.56;5073264;27;66092;-44
2022/09/14 07:03:51;;;;;;;1.80;1.67;;;;;;;32.21;64.24;100753.56;5075292;28;70967;-45
2022/09/14 07:06:27;;;;;;;2.45;1.70;;;;;;;32.24;64.20;100751.22;5076974;27;66211;-45
2022/09/14 07:09:11;;;;;;;2.50;2.30;;;;;;;32.27;64.04;100755.34;5073614;28;70122;-46
2022/09/14 07:11:45;;;;;;;2.63;2.42;;;;;;;32.30;63.88;100763.03;5074971;28;66197;-47
2022/09/14 07:14:20;;;;;;;3.25;2.42;;;;;;;32.31;63.75;100766.56;5074012;28;70810;-44
2022/09/14 07:16:52;;;;;;;3.90;2.47;;;;;;;32.37;63.93;100771.88;5078049;28;66045;-46
2022/09/14 07:19:26;;;;;;;2.55;2.28;;;;;;;32.30;64.04;100760.31;5076885;27;70802;-44
2022/09/14 07:22:05;;;;;;;3.20;2.88;;;;;;;32.40;64.04;100773.28;5080924;28;66967;-45
2022/09/14 07:24:38;;;;;;;2.65;2.33;;;;;;;32.43;63.87;100776.38;5078533;27;71148;-44
2022/09/14 07:27:11;;;;;;;2.85;2.42;;;;;;;32.45;63.71;100768.81;5078849;27;66861;-44
2022/09/14 07:29:43;;;;;;;2.55;2.28;;;;;;;32.47;63.81;100750.44;5079620;28;70415;-46
2022/09/14 07:32:16;;;;;;;3.78;2.30;;;;;;;32.52;63.74;100741.59;5076297;28;67397;-46
2022/09/14 07:34:48;;;;;;;3.38;2.97;;;;;;;32.52;63.97;100729.91;5077880;27;69985;-45
2022/09/14 07:37:20;;;;;;;2.40;2.20;;;;;;;32.58;63.75;100723.53;5075376;27;65123;-45
2022/09/14 07:39:53;;;;;;;2.63;2.42;;;;;;;32.60;63.45;100710.56;5070305;27;71504;-45
2022/09/14 07:42:25;;;;;;;5.60;2.63;;;;;;;32.62;63.87;100713.84;5067504;28;67271;-45
2022/09/14 07:44:58;;;;;;;4.25;2.72;;;;;;;32.64;64.12;100709.00;5069121;28;70283;-45
2022/09/14 07:47:30;;;;;;;4.25;2.80;;;;;;;32.65;64.07;100708.78;5079083;27;66110;-45
2022/09/14 07:50:03;;;;;;;3.53;3.22;;;;;;;32.65;64.15;100691.66;5074053;28;70025;-45
2022/09/14 07:52:35;;;;;;;3.45;3.10;;;;;;;32.67;64.08;100700.38;5079603;28;67039;-45
2022/09/14 07:55:11;;;;;;;5.18;3.13;;;;;;;32.68;64.30;100689.31;5068952;27;70605;-45
2022/09/14 07:57:45;;;;;;;4.70;3.60;;;;;;;32.62;63.79;100681.25;5074627;27;67289;-45
2022/09/14 08:00:26;;;;;;;5.10;3.17;;;;;;;32.69;64.11;100687.41;5083982;27;70782;-45
2022/09/14 08:02:58;;;;;;;3.65;2.97;;;;;;;32.71;63.94;100679.84;5074591;27;67310;-47
2022/09/14 08:05:31;;;;;;;4.80;2.92;;;;;;;32.67;63.95;100667.81;5075745;28;70310;-46
2022/09/14 08:08:03;;;;;;;4.88;2.95;;;;;;;32.72;63.83;100676.06;5078674;27;66170;-46
2022/09/14 08:10:36;;;;;;;3.65;3.35;;;;;;;32.75;63.71;100681.03;5078747;27;70071;-45
2022/09/14 08:13:08;;;;;;;4.05;2.92;;;;;;;32.76;64.08;100677.22;5075061;27;66792;-45
2022/09/14 08:15:40;;;;;;;4.38;2.58;;;;;;;32.77;63.88;100678.91;5077539;28;70984;-46
2022/09/14 08:18:13;;;;;;;4.03;2.80;;;;;;;32.80;63.68;100678.41;5077447;27;66971;-45
2022/09/14 08:20:45;;;;;;;4.63;2.88;;;;;;;32.83;63.53;100677.13;5069014;27;71018;-45
2022/09/14 08:23:18;;;;;;;3.50;2.63;;;;;;;32.48;63.35;100621.78;5082569;27;65960;-45
2022/09/14 08:25:52;;;;;;;4.15;2.25;;;;;;;32.87;63.35;100684.53;5076188;28;71134;-45
2022/09/14 08:28:25;;;;;;;2.65;2.10;;;;;;;32.89;63.38;100685.13;5083785;28;66692;-45
2022/09/14 08:31:09;;;;;;;6.40;2.67;;;;;;;32.89;63.50;100671.53;5071301;28;69898;-45
2022/09/14 08:33:48;;;;;;;2.80;2.13;;;;;;;32.51;63.27;100603.34;5070487;28;66004;-45
2022/09/14 08:36:22;;;;;;;3.25;2.22;;;;;;;32.71;62.91;100649.97;5073654;28;70463;-45
2022/09/14 08:38:55;;;;;;;3.80;2.42;;;;;;;32.83;63.11;100666.25;5075120;27;66980;-45
2022/09/14 08:41:37;;;;;;;5.00;2.00;;;;;;;33.04;62.82;100695.56;5073148;28;70657;-45
2022/09/14 08:44:14;;;;;;;6.13;2.30;;;;;;;33.07;62.70;100694.22;5070002;28;66568;-46
2022/09/14 08:47:08;;;;;;;3.67;2.17;;;;;;;32.96;62.64;100692.31;5078431;27;70540;-46
2022/09/14 08:49:59;;;;;;;3.53;2.20;;;;;;;33.05;62.79;100697.19;5081841;28;66023;-45
2022/09/14 08:52:36;;;;;;;3.42;2.10;;;;;;;33.19;62.51;100691.50;5071178;28;70027;-44
2022/09/14 08:55:33;;;;;;;1.90;1.67;;;;;;;32.71;62.48;100626.34;5070785;28;68324;-45
2022/09/14 08:58:36;;;;;;;2.95;2.05;;;;;;;33.21;62.34;100695.63;5076994;28;69936;-45
2022/09/14 09:01:57;;;;;;;4.32;1.80;;;;;;;33.13;62.67;100698.72;5076360;28;65985;-46
2022/09/14 09:05:14;;;;;;;3.22;2.50;;;;;;;33.25;62.24;100702.22;5078786;28;70720;-45
2022/09/14 09:08:16;;;;;;;4.75;2.00;;;;;;;33.31;62.49;100703.97;5080588;28;66363;-47
2022/09/14 09:10:51;;;;;;;3.67;2.30;;;;;;;33.44;61.94;100702.88;5079603;27;70560;-45
2022/09/14 09:13:28;;;;;;;2.95;2.20;;;;;;;33.05;61.91;100636.59;5079129;28;66590;-46
2022/09/14 09:16:03;;;;;;;2.30;2.10;;;;;;;33.54;61.47;100713.13;5076533;28;69837;-46
2022/09/14 09:18:41;;;;;;;3.00;2.35;;;;;;;33.56;61.66;100719.16;5081683;27;66833;-46
2022/09/14 09:21:17;;;;;;;5.43;2.70;;;;;;;33.11;61.88;100662.78;5079965;27;68539;-45
2022/09/14 09:23:50;;;;;;;4.95;2.88;;;;;;;33.58;61.83;100755.13;5068651;27;67066;-46
2022/09/14 09:26:26;;;;;;;4.47;3.67;;;;;;;33.26;62.55;100774.53;5070647;28;70734;-46
2022/09/14 09:29:01;;;;;;;4.60;2.90;;;;;;;33.00;63.32;100754.13;5074846;27;66953;-47
2022/09/14 09:31:55;;;;;;;6.20;3.50;;;;;;;32.87;64.16;100736.16;5079692;27;70549;-46
2022/09/14 09:34:48;;;;;;;6.20;3.22;;;;;;;32.69;64.55;100722.72;5081454;28;67176;-45
2022/09/14 09:37:43;;;;;;;10.23;2.67;;;;;;;32.77;64.89;100749.53;5072664;27;70129;-46
2022/09/14 09:40:26;;;;;;;3.75;2.92;;;;;;;32.34;64.54;100668.38;5079065;28;66046;-46
2022/09/14 09:43:10;;;;;;;6.95;3.35;;;;;;;32.60;65.50;100732.28;5075624;28;71042;-48
2022/09/14 09:46:03;;;;;;;4.93;2.50;;;;;;;32.66;65.24;100753.06;5078949;28;66468;-45
2022/09/14 09:48:38;;;;;;;4.95;1.88;;;;;;;32.69;65.13;100763.47;5077642;28;69889;-46
2022/09/14 09:51:16;;;;;;;10.18;2.72;;;;;;;32.67;64.98;100773.72;5077016;27;66697;-45
2022/09/14 09:53:55;;;;;;;6.72;2.47;;;;;;;32.65;65.07;100783.97;5078305;27;70700;-45
2022/09/14 09:56:30;;;;;;;5.13;2.10;;;;;;;32.30;64.69;100705.19;5075895;28;67113;-47
2022/09/14 09:59:20;;;;;;;6.13;2.45;;;;;;;32.62;64.99;100768.97;5079263;28;70291;-46
2022/09/14 10:01:55;;;;;;;12.07;2.13;;;;;;;32.23;64.89;100710.72;5076914;28;67307;-46
2022/09/14 10:04:28;;;;;;;3.80;2.53;;;;;;;32.46;65.01;100750.69;5075840;28;71737;-47
2022/09/14 10:07:02;;;;;;;6.15;1.67;;;;;;;32.28;64.85;100722.53;5075849;28;66597;-48
2022/09/14 10:09:35;;;;;;;8.52;2.03;;;;;;;32.61;64.91;100785.53;5075649;28;70291;-45
2022/09/14 10:12:15;;;;;;;5.93;1.98;;;;;;;32.57;64.81;100798.75;5079792;27;66490;-47
2022/09/14 10:14:48;;;;;;;7.18;2.10;;;;;;;32.56;64.76;100807.94;5075122;28;70585;-47
2022/09/14 10:17:22;;;;;;;2.75;1.90;;;;;;;32.53;64.62;100826.59;5076932;28;66234;-45
2022/09/14 10:19:57;;;;;;;3.03;1.95;;;;;;;32.47;64.45;100826.47;5077836;28;70971;-46
2022/09/14 10:22:34;;;;;;;4.30;2.58;;;;;;;32.47;64.47;100818.31;5075949;28;67007;-46
2022/09/14 10:25:13;;;;;;;6.15;2.65;;;;;;;32.46;64.55;100827.53;5076473;28;69724;-46
2022/09/14 10:27:56;;;;;;;3.90;2.60;;;;;;;32.41;65.00;100845.56;5071938;28;67305;-46
2022/09/14 10:30:44;;;;;;;15.85;9.90;;;;;;;32.10;65.05;100795.06;5073005;28;70939;-48
2022/09/14 10:33:17;;;;;;;27.20;15.80;;;;;;;32.43;65.61;100856.97;5078602;28;66114;-46
2022/09/14 10:36:10;;;;;;;24.40;13.43;;;;;;;32.34;64.99;100851.06;5069461;28;70107;-47
2022/09/14 10:38:57;;;;;;;16.30;8.25;;;;;;;32.33;64.56;100868.41;5073246;27;66185;-46
2022/09/14 10:41:51;;;;;;;8.23;5.75;;;;;;;32.16;64.13;100868.22;5070213;28;70294;-47
2022/09/14 10:44:45;;;;;;;7.35;5.05;;;;;;;32.16;65.03;100867.41;5077442;28;66905;-48
2022/09/14 10:47:39;;;;;;;6.70;5.03;;;;;;;32.18;65.56;100866.13;5076788;28;70181;-45
2022/09/14 10:50:23;;;;;;;5.60;4.03;;;;;;;32.23;65.49;100876.28;5073042;28;66273;-47
2022/09/14 10:53:09;;;;;;;4.50;3.80;;;;;;;32.23;65.66;100873.56;5074901;27;70880;-47
2022/09/14 10:56:19;;;;;;;4.47;3.47;;;;;;;32.20;66.61;100893.03;5070365;28;66220;-46
2022/09/14 10:59:00;;;;;;;4.63;3.17;;;;;;;32.26;66.31;100890.25;5041248;27;70284;-47
2022/09/14 11:02:11;;;;;;;3.95;3.08;;;;;;;31.70;66.90;100817.25;5072024;28;68202;-46
2022/09/14 11:05:00;;;;;;;4.07;2.95;;;;;;;32.15;67.60;100888.31;5074891;28;70953;-46
2022/09/14 11:07:56;;;;;;;9.70;3.63;;;;;;;31.86;66.83;100830.19;5078188;28;67082;-46
2022/09/14 11:10:45;;;;;;;5.60;2.97;;;;;;;32.43;65.53;100897.72;5079436;28;70903;-46
2022/09/14 11:13:39;;;;;;;6.00;3.03;;;;;;;31.97;64.91;100806.94;5076606;28;67014;-47
2022/09/14 11:16:52;;;;;;;6.75;3.15;;;;;;;32.43;64.65;100885.00;5076664;28;71061;-46
2022/09/14 11:19:35;;;;;;;3.65;2.90;;;;;;;32.60;64.19;100885.19;5015316;28;66303;-46
2022/09/14 11:22:29;;;;;;;2.70;2.50;;;;;;;32.62;63.87;100906.66;5075835;28;70766;-46
2022/09/14 11:25:11;;;;;;;6.20;2.33;;;;;;;32.64;64.02;100926.28;5075185;28;66533;-46
2022/09/14 11:27:50;;;;;;;3.37;2.10;;;;;;;32.63;63.89;100927.34;5075187;27;70529;-47
2022/09/14 11:30:32;;;;;;;2.70;2.00;;;;;;;32.45;63.57;100893.72;5076761;28;66457;-46
2022/09/14 11:34:00;;;;;;;2.30;2.10;;;;;;;32.51;63.94;100929.19;5078798;28;70235;-47
2022/09/14 11:36:50;;;;;;;3.00;2.30;;;;;;;32.15;64.20;100860.31;5050433;28;66413;-47
2022/09/14 11:39:31;;;;;;;2.50;1.83;;;;;;;32.51;63.76;100940.03;5071856;27;70393;-47
2022/09/14 11:42:10;;;;;;;2.20;2.00;;;;;;;32.17;63.77;100888.06;5056566;28;66307;-46
2022/09/14 11:44:45;;;;;;;3.33;3.03;;;;;;;32.55;63.40;100935.81;5080491;27;70067;-47
2022/09/14 11:47:21;;;;;;;2.90;2.70;;;;;;;32.49;63.84;100943.81;5071887;28;66826;-47
2022/09/14 11:50:37;;;;;;;6.85;2.58;;;;;;;32.36;64.46;100938.53;5075455;28;70518;-48
2022/09/14 11:53:13;;;;;;;5.72;2.97;;;;;;;32.45;63.92;100942.59;5058825;28;67180;-46
2022/09/14 11:55:48;;;;;;;3.30;3.00;;;;;;;32.22;63.95;100909.91;5075197;28;70729;-46
2022/09/14 11:58:28;;;;;;;3.58;3.28;;;;;;;32.41;63.74;100946.00;5074770;27;65919;-47
2022/09/14 12:01:21;;;;;;;3.17;2.88;;;;;;;32.39;64.14;100938.06;5090129;27;71547;-46
2022/09/14 12:04:04;;;;;;;3.60;3.28;;;;;;;32.01;64.14;100922.91;5079354;28;66080;-46
2022/09/14 12:06:36;;;;;;;7.55;3.67;;;;;;;31.98;64.88;100930.66;5070253;28;70819;-42
2022/09/14 12:09:22;;;;;;;5.28;3.60;;;;;;;31.90;65.24;100928.22;5077914;27;67041;-43
2022/09/14 12:11:58;;;;;;;3.50;3.15;;;;;;;31.87;66.02;100918.63;5068289;28;70901;-43
2022/09/14 12:14:39;;;;;;;3.22;2.92;;;;;;;31.71;66.33;100906.53;5074322;28;67048;-42
2022/09/14 12:17:38;;;;;;;4.13;3.13;;;;;;;31.66;66.64;100917.22;5079277;28;70828;-43